createdAt,value
2018-11-10T00:01:06.382Z,34.57
2018-11-10T00:03:34.955Z,30.23
2018-11-10T00:06:03.697Z,27.67
2018-11-10T00:08:32.368Z,29.90
2018-11-10T00:11:01.050Z,22.83
2018-11-10T00:13:29.588Z,28.53
2018-11-10T00:15:58.267Z,26.13
2018-11-10T00:18:26.980Z,21.13
2018-11-10T00:20:55.562Z,38.10
2018-11-10T00:23:24.101Z,18.80
2018-11-10T00:25:52.674Z,22.33
2018-11-10T00:28:21.317Z,25.57
2018-11-10T00:30:50.101Z,23.67
2018-11-10T00:33:18.638Z,37.40
2018-11-10T00:35:47.254Z,28.63
2018-11-10T00:38:15.880Z,27.07
2018-11-10T00:40:44.416Z,31.00
2018-11-10T00:43:12.966Z,31.60
2018-11-10T00:45:41.581Z,33.80
2018-11-10T00:48:10.270Z,29.60
2018-11-10T00:50:38.811Z,33.87
2018-11-10T00:53:07.412Z,33.83
2018-11-10T00:55:36.345Z,32.97
2018-11-10T00:58:05.432Z,34.47
2018-11-10T01:00:34.053Z,35.30
2018-11-10T01:03:02.682Z,39.20
2018-11-10T01:05:31.453Z,34.70
2018-11-10T01:08:00.003Z,39.80
2018-11-10T01:10:28.560Z,34.73
2018-11-10T01:12:57.099Z,35.73
2018-11-10T01:15:25.814Z,32.57
2018-11-10T01:17:54.494Z,33.13
2018-11-10T01:20:23.387Z,25.70
2018-11-10T01:22:52.087Z,32.00
2018-11-10T01:25:20.659Z,30.90
2018-11-10T01:27:49.255Z,33.50
2018-11-10T01:30:17.789Z,30.17
2018-11-10T01:32:46.861Z,32.83
2018-11-10T01:35:16.007Z,33.80
2018-11-10T01:37:45.090Z,27.63
2018-11-10T01:40:14.545Z,28.70
2018-11-10T01:42:43.626Z,29.20
2018-11-10T01:45:16.063Z,24.73
2018-11-10T01:47:45.079Z,24.73
2018-11-10T01:50:13.756Z,31.30
2018-11-10T01:52:42.779Z,32.53
2018-11-10T01:55:11.955Z,31.50
2018-11-10T01:57:41.701Z,27.20
2018-11-10T02:00:13.141Z,28.87
2018-11-10T02:02:42.430Z,26.80
2018-11-10T02:05:11.240Z,32.27
2018-11-10T02:07:39.908Z,26.80
2018-11-10T02:10:09.845Z,31.20
2018-11-10T02:12:38.639Z,29.73
2018-11-10T02:15:09.493Z,26.30
2018-11-10T02:17:38.273Z,27.40
2018-11-10T02:20:08.197Z,33.67
2018-11-10T02:22:36.996Z,27.13
2018-11-10T02:25:06.649Z,37.70
2018-11-10T02:27:35.275Z,32.53
2018-11-10T02:30:04.054Z,28.20
2018-11-10T02:32:32.712Z,33.97
2018-11-10T02:35:01.249Z,27.40
2018-11-10T02:37:29.924Z,30.67
2018-11-10T02:39:58.511Z,29.73
2018-11-10T02:42:27.248Z,28.17
2018-11-10T02:44:56.147Z,27.53
2018-11-10T02:47:24.748Z,31.00
2018-11-10T02:49:53.522Z,29.30
2018-11-10T02:52:22.062Z,37.80
2018-11-10T02:54:50.565Z,25.47
2018-11-10T02:57:19.316Z,28.60
2018-11-10T02:59:47.820Z,33.93
2018-11-10T03:02:16.350Z,33.27
2018-11-10T03:04:44.946Z,32.73
2018-11-10T03:07:13.562Z,33.33
2018-11-10T03:09:42.068Z,28.40
2018-11-10T03:12:10.633Z,27.07
2018-11-10T03:14:39.270Z,27.00
2018-11-10T03:17:07.989Z,26.93
2018-11-10T03:19:36.715Z,34.43
2018-11-10T03:22:05.449Z,28.70
2018-11-10T03:24:34.050Z,30.87
2018-11-10T03:27:02.643Z,27.90
2018-11-10T03:29:31.251Z,28.43
2018-11-10T03:31:59.848Z,35.97
2018-11-10T03:34:28.757Z,29.67
2018-11-10T03:36:57.339Z,31.07
2018-11-10T03:39:25.892Z,32.83
2018-11-10T03:41:54.375Z,29.20
2018-11-10T03:44:23.118Z,25.90
2018-11-10T03:46:51.786Z,23.77
2018-11-10T03:49:20.343Z,28.17
2018-11-10T03:51:48.933Z,22.50
2018-11-10T03:54:17.807Z,23.90
2018-11-10T03:56:46.310Z,24.03
2018-11-10T03:59:14.856Z,25.00
2018-11-10T04:01:43.713Z,20.70
2018-11-10T04:04:12.231Z,17.00
2018-11-10T04:06:40.905Z,26.40
2018-11-10T04:09:09.444Z,19.77
2018-11-10T04:11:37.971Z,20.73
2018-11-10T04:14:06.670Z,18.57
2018-11-10T04:16:35.509Z,26.27
2018-11-10T04:19:04.031Z,22.53
2018-11-10T04:21:32.780Z,19.37
2018-11-10T04:24:01.376Z,19.40
2018-11-10T04:26:29.982Z,18.30
2018-11-10T04:28:58.661Z,18.30
2018-11-10T04:31:27.315Z,21.87
2018-11-10T04:33:55.987Z,19.33
2018-11-10T04:36:24.914Z,17.33
2018-11-10T04:38:53.575Z,16.10
2018-11-10T04:41:22.212Z,16.97
2018-11-10T04:43:50.870Z,23.30
2018-11-10T04:46:19.453Z,18.40
2018-11-10T04:48:48.024Z,22.53
2018-11-10T04:51:16.872Z,15.03
2018-11-10T04:53:45.411Z,17.03
2018-11-10T04:56:14.104Z,22.80
2018-11-10T04:58:42.953Z,22.37
2018-11-10T05:01:11.578Z,23.87
2018-11-10T05:03:40.476Z,17.80
2018-11-10T05:06:09.019Z,17.57
2018-11-10T05:08:37.644Z,19.80
2018-11-10T05:11:06.623Z,18.47
2018-11-10T05:13:35.269Z,18.93
2018-11-10T05:16:03.984Z,18.87
2018-11-10T05:18:32.519Z,20.60
2018-11-10T05:21:01.376Z,19.13
2018-11-10T05:23:29.959Z,14.53
2018-11-10T05:25:58.589Z,10.20
2018-11-10T05:28:27.202Z,11.60
2018-11-10T05:30:55.970Z,10.97
2018-11-10T05:33:24.558Z,11.23
2018-11-10T05:35:53.115Z,13.70
2018-11-10T05:38:21.743Z,12.70
2018-11-10T05:40:50.388Z,12.43
2018-11-10T05:43:18.979Z,13.67
2018-11-10T05:45:47.481Z,10.57
2018-11-10T05:48:16.035Z,14.23
2018-11-10T05:50:44.729Z,12.40
2018-11-10T05:53:13.330Z,15.07
2018-11-10T05:55:41.922Z,17.00
2018-11-10T05:58:10.551Z,13.63
2018-11-10T06:00:39.064Z,16.23
2018-11-10T06:03:07.758Z,18.97
2018-11-10T06:05:36.423Z,14.17
2018-11-10T06:08:05.295Z,15.13
2018-11-10T06:10:34.107Z,14.80
2018-11-10T06:13:02.641Z,17.57
2018-11-10T06:15:31.247Z,18.13
2018-11-10T06:17:59.959Z,16.40
2018-11-10T06:20:28.525Z,24.13
2018-11-10T06:22:57.086Z,15.60
2018-11-10T06:25:25.975Z,20.17
2018-11-10T06:27:54.496Z,14.80
2018-11-10T06:30:23.070Z,17.07
2018-11-10T06:32:51.780Z,15.13
2018-11-10T06:35:20.436Z,22.03
2018-11-10T06:37:49.002Z,19.87
2018-11-10T06:40:17.817Z,25.27
2018-11-10T06:42:46.558Z,17.90
2018-11-10T06:45:15.159Z,18.80
2018-11-10T06:47:43.937Z,16.60
2018-11-10T06:50:12.835Z,17.33
2018-11-10T06:52:41.741Z,17.27
2018-11-10T06:55:11.338Z,14.97
2018-11-10T06:57:40.074Z,27.33
2018-11-10T07:00:11.289Z,13.17
2018-11-10T07:02:40.115Z,16.07
2018-11-10T07:05:09.340Z,14.90
2018-11-10T07:07:38.600Z,23.23
2018-11-10T07:10:08.088Z,13.30
2018-11-10T07:12:37.004Z,13.47
2018-11-10T07:15:06.850Z,10.50
2018-11-10T07:17:35.849Z,13.17
2018-11-10T07:20:04.742Z,14.97
2018-11-10T07:22:33.747Z,9.90
2018-11-10T07:25:02.447Z,13.53
2018-11-10T07:27:31.001Z,18.13
2018-11-10T07:29:59.636Z,13.13
2018-11-10T07:32:28.173Z,14.63
2018-11-10T07:34:56.784Z,10.57
2018-11-10T07:37:25.500Z,13.00
2018-11-10T07:39:54.364Z,18.80
2018-11-10T07:42:22.916Z,18.63
2018-11-10T07:44:51.619Z,14.80
2018-11-10T07:47:20.304Z,11.73
2018-11-10T07:49:48.879Z,17.30
2018-11-10T07:52:17.550Z,11.80
2018-11-10T07:54:46.241Z,18.27
2018-11-10T07:57:14.814Z,15.13
2018-11-10T07:59:43.559Z,17.37
2018-11-10T08:02:12.151Z,14.43
2018-11-10T08:04:40.932Z,17.80
2018-11-10T08:07:09.695Z,15.90
2018-11-10T08:09:38.574Z,17.70
2018-11-10T08:12:07.508Z,17.47
2018-11-10T08:14:36.068Z,18.60
2018-11-10T08:17:04.721Z,12.87
2018-11-10T08:19:33.462Z,13.97
2018-11-10T08:22:02.092Z,15.70
2018-11-10T08:24:30.824Z,19.20
2018-11-10T08:26:59.429Z,16.43
2018-11-10T08:29:28.203Z,14.70
2018-11-10T08:31:57.123Z,15.87
2018-11-10T08:34:26.019Z,16.10
2018-11-10T08:36:54.821Z,21.07
2018-11-10T08:39:23.582Z,24.20
2018-11-10T08:41:52.111Z,14.13
2018-11-10T08:44:21.089Z,12.00
2018-11-10T08:46:49.667Z,10.67
2018-11-10T08:49:18.404Z,15.00
2018-11-10T08:51:47.212Z,23.63
2018-11-10T08:54:15.970Z,12.80
2018-11-10T08:56:44.766Z,20.17
2018-11-10T08:59:13.535Z,18.60
2018-11-10T09:01:42.280Z,16.70
2018-11-10T09:04:11.169Z,17.87
2018-11-10T09:06:39.902Z,26.67
2018-11-10T09:09:10.081Z,17.80
2018-11-10T09:11:38.704Z,18.23
2018-11-10T09:14:07.351Z,16.57
2018-11-10T09:16:36.317Z,24.87
2018-11-10T09:19:05.169Z,16.07
2018-11-10T09:21:34.032Z,15.77
2018-11-10T09:24:02.735Z,15.50
2018-11-10T09:26:31.462Z,18.80
2018-11-10T09:29:00.390Z,13.87
2018-11-10T09:31:29.284Z,15.23
2018-11-10T09:33:58.070Z,15.00
2018-11-10T09:36:26.814Z,14.13
2018-11-10T09:38:55.364Z,19.73
2018-11-10T09:41:24.190Z,16.67
2018-11-10T09:43:52.767Z,19.20
2018-11-10T09:46:21.537Z,23.63
2018-11-10T09:48:50.249Z,18.63
2018-11-10T09:51:19.644Z,14.17
2018-11-10T09:53:48.295Z,14.60
2018-11-10T09:56:17.082Z,20.83
2018-11-10T09:58:45.862Z,12.80
2018-11-10T10:01:14.785Z,17.57
2018-11-10T10:03:43.378Z,14.47
2018-11-10T10:06:12.184Z,21.50
2018-11-10T10:08:40.910Z,39.23
2018-11-10T10:11:09.560Z,16.80
2018-11-10T10:13:38.417Z,27.70
2018-11-10T10:16:07.555Z,19.17
2018-11-10T10:18:36.330Z,33.87
2018-11-10T10:21:05.055Z,19.30
2018-11-10T10:23:33.683Z,22.90
2018-11-10T10:26:02.569Z,27.97
2018-11-10T10:28:31.327Z,23.60
2018-11-10T10:31:00.621Z,16.07
2018-11-10T10:33:29.393Z,15.00
2018-11-10T10:35:58.216Z,17.93
2018-11-10T10:38:27.110Z,21.13
2018-11-10T10:40:55.892Z,16.03
2018-11-10T10:43:24.582Z,24.07
2018-11-10T10:45:53.575Z,14.70
2018-11-10T10:48:22.306Z,20.50
2018-11-10T10:50:51.156Z,20.67
2018-11-10T10:53:19.756Z,18.20
2018-11-10T10:55:48.351Z,26.93
2018-11-10T10:58:17.104Z,16.47
2018-11-10T11:00:51.420Z,19.27
2018-11-10T11:03:25.490Z,19.60
2018-11-10T11:06:00.647Z,20.70
2018-11-10T11:08:29.653Z,18.00
2018-11-10T11:10:58.608Z,13.33
2018-11-10T11:13:27.621Z,18.60
2018-11-10T11:15:56.458Z,24.63
2018-11-10T11:18:25.513Z,20.73
2018-11-10T11:20:54.212Z,16.30
2018-11-10T11:23:22.967Z,16.60
2018-11-10T11:25:51.768Z,15.87
2018-11-10T11:28:20.528Z,16.07
2018-11-10T11:30:49.287Z,20.40
2018-11-10T11:33:18.180Z,15.40
2018-11-10T11:35:46.981Z,19.67
2018-11-10T11:38:16.259Z,21.13
2018-11-10T11:40:45.018Z,19.13
2018-11-10T11:43:13.755Z,22.23
2018-11-10T11:45:42.508Z,17.70
2018-11-10T11:48:11.225Z,17.30
2018-11-10T11:50:40.146Z,14.40
2018-11-10T11:53:09.021Z,13.67
2018-11-10T11:55:37.860Z,10.57
2018-11-10T11:58:06.887Z,17.73
2018-11-10T12:00:35.664Z,12.60
2018-11-10T12:03:04.362Z,12.07
2018-11-10T12:05:33.158Z,12.97
2018-11-10T12:08:01.937Z,14.63
2018-11-10T12:10:30.691Z,15.93
2018-11-10T12:12:59.805Z,17.70
2018-11-10T12:15:28.485Z,22.17
2018-11-10T12:17:57.078Z,12.40
2018-11-10T12:20:26.009Z,15.90
2018-11-10T12:22:55.127Z,14.83
2018-11-10T12:25:23.876Z,16.47
2018-11-10T12:27:52.725Z,16.77
2018-11-10T12:30:21.619Z,12.43
2018-11-10T12:32:50.481Z,12.10
2018-11-10T12:35:19.294Z,11.60
2018-11-10T12:37:47.988Z,16.30
2018-11-10T12:40:16.687Z,16.60
2018-11-10T12:42:45.571Z,26.07
2018-11-10T12:45:14.645Z,19.23
2018-11-10T12:47:44.004Z,19.53
2018-11-10T12:50:13.878Z,13.60
2018-11-10T12:52:43.706Z,25.50
2018-11-10T12:55:13.676Z,16.87
2018-11-10T12:57:43.203Z,15.90
2018-11-10T13:00:13.544Z,19.90
2018-11-10T13:02:42.704Z,16.33
2018-11-10T13:05:12.124Z,15.80
2018-11-10T13:07:42.472Z,18.93
2018-11-10T13:10:11.857Z,23.47
2018-11-10T13:12:41.063Z,15.93
2018-11-10T13:15:10.236Z,12.67
2018-11-10T13:17:39.472Z,14.27
2018-11-10T13:20:11.642Z,19.53
2018-11-10T13:22:40.468Z,24.17
2018-11-10T13:25:10.345Z,20.03
2018-11-10T13:27:39.120Z,14.30
2018-11-10T13:30:09.888Z,15.10
2018-11-10T13:32:39.019Z,21.00
2018-11-10T13:35:08.818Z,10.40
2018-11-10T13:37:37.742Z,13.37
2018-11-10T13:40:07.356Z,13.50
2018-11-10T13:42:36.161Z,11.70
2018-11-10T13:45:05.554Z,13.87
2018-11-10T13:47:34.335Z,16.20
2018-11-10T13:50:03.580Z,16.37
2018-11-10T13:52:32.749Z,13.20
2018-11-10T13:55:01.065Z,12.43
2018-11-10T13:57:29.992Z,14.30
2018-11-10T13:59:58.800Z,13.23
2018-11-10T14:02:27.844Z,10.07
2018-11-10T14:04:56.789Z,13.77
2018-11-10T14:07:25.694Z,10.50
2018-11-10T14:09:54.379Z,12.37
2018-11-10T14:12:23.396Z,13.50
2018-11-10T14:14:51.984Z,13.53
2018-11-10T14:17:20.687Z,11.43
2018-11-10T14:19:49.578Z,11.33
2018-11-10T14:22:18.472Z,10.53
2018-11-10T14:24:47.223Z,10.73
2018-11-10T14:27:16.077Z,10.50
2018-11-10T14:29:44.796Z,13.03
2018-11-10T14:32:13.660Z,12.07
2018-11-10T14:34:43.561Z,7.13
2018-11-10T14:37:12.476Z,12.77
2018-11-10T14:39:41.398Z,12.57
2018-11-10T14:42:10.087Z,14.20
2018-11-10T14:44:38.789Z,15.17
2018-11-10T14:47:07.553Z,21.03
2018-11-10T14:49:36.284Z,17.53
2018-11-10T14:52:05.582Z,15.80
2018-11-10T14:54:34.284Z,10.67
2018-11-10T14:57:03.008Z,15.23
2018-11-10T14:59:32.066Z,13.70
2018-11-10T15:02:00.886Z,10.20
2018-11-10T15:04:29.838Z,26.63
2018-11-10T15:06:58.684Z,15.57
2018-11-10T15:09:27.617Z,13.90
2018-11-10T15:11:56.687Z,15.10
2018-11-10T15:14:25.490Z,10.73
2018-11-10T15:17:01.083Z,15.57
2018-11-10T15:19:29.863Z,15.93
2018-11-10T15:21:58.691Z,16.47
2018-11-10T15:24:27.504Z,11.70
2018-11-10T15:26:56.366Z,14.70
2018-11-10T15:29:25.044Z,15.70
2018-11-10T15:31:54.076Z,15.43
2018-11-10T15:34:22.750Z,11.40
2018-11-10T15:36:51.605Z,20.53
2018-11-10T15:39:20.441Z,10.03
2018-11-10T15:41:49.157Z,14.90
2018-11-10T15:44:17.881Z,17.10
2018-11-10T15:46:46.742Z,9.80
2018-11-10T15:49:15.983Z,12.40
2018-11-10T15:51:45.035Z,12.83
2018-11-10T15:54:13.844Z,14.63
2018-11-10T15:56:42.732Z,13.43
2018-11-10T15:59:11.506Z,10.03
2018-11-10T16:01:40.360Z,11.23
2018-11-10T16:04:09.248Z,14.03
2018-11-10T16:06:38.065Z,13.00
2018-11-10T16:09:10.482Z,15.63
2018-11-10T16:11:39.299Z,12.70
2018-11-10T16:14:08.342Z,19.03
2018-11-10T16:16:37.258Z,15.93
2018-11-10T16:19:06.449Z,12.43
2018-11-10T16:21:35.315Z,10.80
2018-11-10T16:24:04.351Z,19.23
2018-11-10T16:26:33.167Z,13.90
2018-11-10T16:29:02.031Z,9.80
2018-11-10T16:31:30.815Z,10.57
2018-11-10T16:33:59.466Z,11.70
2018-11-10T16:36:28.163Z,10.07
2018-11-10T16:38:57.076Z,18.73
2018-11-10T16:41:25.847Z,11.93
2018-11-10T16:43:54.550Z,11.90
2018-11-10T16:46:23.528Z,17.23
2018-11-10T16:48:52.334Z,11.87
2018-11-10T16:51:21.943Z,8.97
2018-11-10T16:53:50.789Z,12.67
2018-11-10T16:56:19.457Z,12.30
2018-11-10T16:58:48.415Z,14.07
2018-11-10T17:01:17.166Z,16.80
2018-11-10T17:03:46.020Z,23.07
2018-11-10T17:06:15.082Z,11.37
2018-11-10T17:08:43.949Z,15.90
2018-11-10T17:11:12.748Z,40.07
2018-11-10T17:13:41.810Z,10.20
2018-11-10T17:16:10.683Z,17.53
2018-11-10T17:18:39.415Z,12.10
2018-11-10T17:21:08.133Z,16.60
2018-11-10T17:23:37.000Z,14.87
2018-11-10T17:26:06.126Z,30.10
2018-11-10T17:28:34.925Z,13.93
2018-11-10T17:31:04.141Z,12.53
2018-11-10T17:33:32.814Z,18.80
2018-11-10T17:36:01.772Z,14.43
2018-11-10T17:38:30.592Z,14.80
2018-11-10T17:40:59.366Z,10.07
2018-11-10T17:43:28.898Z,11.67
2018-11-10T17:45:57.856Z,13.40
2018-11-10T17:48:27.084Z,11.67
2018-11-10T17:50:55.797Z,27.47
2018-11-10T17:53:24.481Z,14.20
2018-11-10T17:55:53.234Z,12.77
2018-11-10T17:58:22.151Z,11.83
2018-11-10T18:00:51.009Z,16.20
2018-11-10T18:03:19.778Z,15.37
2018-11-10T18:05:48.661Z,14.30
2018-11-10T18:08:17.432Z,28.47
2018-11-10T18:10:46.294Z,13.63
2018-11-10T18:13:15.413Z,12.40
2018-11-10T18:15:44.448Z,7.30
2018-11-10T18:18:13.431Z,10.30
2018-11-10T18:20:42.147Z,9.90
2018-11-10T18:23:11.704Z,10.00
2018-11-10T18:25:40.837Z,18.20
2018-11-10T18:28:09.960Z,14.33
2018-11-10T18:30:38.881Z,10.30
2018-11-10T18:33:07.666Z,8.23
2018-11-10T18:35:36.611Z,9.93
2018-11-10T18:38:05.948Z,18.33
2018-11-10T18:40:35.105Z,9.47
2018-11-10T18:43:04.275Z,13.17
2018-11-10T18:45:33.302Z,7.97
2018-11-10T18:48:02.106Z,16.83
2018-11-10T18:50:31.173Z,5.70
2018-11-10T18:53:00.181Z,8.53
2018-11-10T18:55:29.164Z,8.80
2018-11-10T18:57:58.072Z,9.93
2018-11-10T19:00:27.090Z,8.60
2018-11-10T19:02:56.088Z,5.80
2018-11-10T19:05:25.035Z,6.13
2018-11-10T19:07:53.948Z,7.53
2018-11-10T19:10:22.891Z,7.40
2018-11-10T19:12:51.879Z,9.53
2018-11-10T19:15:21.416Z,5.17
2018-11-10T19:17:50.553Z,9.63
2018-11-10T19:20:19.740Z,10.43
2018-11-10T19:22:48.608Z,9.60
2018-11-10T19:25:17.519Z,8.00
2018-11-10T19:27:46.737Z,6.40
2018-11-10T19:30:19.227Z,7.90
2018-11-10T19:32:49.086Z,6.30
2018-11-10T19:35:18.767Z,6.23
2018-11-10T19:37:47.877Z,4.93
2018-11-10T19:40:16.683Z,3.90
2018-11-10T19:42:46.297Z,9.93
2018-11-10T19:45:15.464Z,5.60
2018-11-10T19:47:45.149Z,5.77
2018-11-10T19:50:14.654Z,6.23
2018-11-10T19:52:50.066Z,7.00
2018-11-10T19:55:18.908Z,8.43
2018-11-10T19:57:47.611Z,5.97
2018-11-10T20:00:22.858Z,7.17
2018-11-10T20:02:51.815Z,7.67
2018-11-10T20:05:20.714Z,9.30
2018-11-10T20:07:49.766Z,6.43
2018-11-10T20:10:18.505Z,7.60
2018-11-10T20:12:47.957Z,6.83
2018-11-10T20:15:17.822Z,12.87
2018-11-10T20:17:46.975Z,7.03
2018-11-10T20:20:17.470Z,7.60
2018-11-10T20:22:46.420Z,8.67
2018-11-10T20:25:16.541Z,9.57
2018-11-10T20:27:45.312Z,8.00
2018-11-10T20:30:19.973Z,6.50
2018-11-10T20:32:49.065Z,7.40
2018-11-10T20:35:17.961Z,4.97
2018-11-10T20:37:47.319Z,7.17
2018-11-10T20:40:16.761Z,6.70
2018-11-10T20:42:45.638Z,8.10
2018-11-10T20:45:17.247Z,11.73
2018-11-10T20:47:46.244Z,10.53
2018-11-10T20:50:15.687Z,6.70
2018-11-10T20:52:44.828Z,6.20
2018-11-10T20:55:14.231Z,4.30
2018-11-10T20:57:43.024Z,7.10
2018-11-10T21:00:20.517Z,4.10
2018-11-10T21:02:49.549Z,7.00
2018-11-10T21:05:18.470Z,4.57
2018-11-10T21:07:47.588Z,3.63
2018-11-10T21:10:19.064Z,4.03
2018-11-10T21:12:48.972Z,6.40
2018-11-10T21:15:18.620Z,10.53
2018-11-10T21:17:47.817Z,3.67
2018-11-10T21:20:16.923Z,5.07
2018-11-10T21:22:46.065Z,3.90
2018-11-10T21:25:16.581Z,2.77
2018-11-10T21:27:45.853Z,6.70
2018-11-10T21:30:16.368Z,3.97
2018-11-10T21:32:45.750Z,4.87
2018-11-10T21:35:14.581Z,6.17
2018-11-10T21:37:43.173Z,4.40
2018-11-10T21:40:18.847Z,7.63
2018-11-10T21:42:47.860Z,3.47
2018-11-10T21:45:17.392Z,2.80
2018-11-10T21:47:46.516Z,3.63
2018-11-10T21:50:16.643Z,2.37
2018-11-10T21:52:46.062Z,8.43
2018-11-10T21:55:16.288Z,2.80
2018-11-10T21:57:45.970Z,3.20
2018-11-10T22:00:16.571Z,2.80
2018-11-10T22:02:45.881Z,2.37
2018-11-10T22:05:14.868Z,4.37
2018-11-10T22:07:43.910Z,2.37
2018-11-10T22:10:14.582Z,3.20
2018-11-10T22:12:43.676Z,2.13
2018-11-10T22:15:17.973Z,2.93
2018-11-10T22:17:46.886Z,3.80
2018-11-10T22:20:17.185Z,3.87
2018-11-10T22:22:46.078Z,3.40
2018-11-10T22:25:15.251Z,2.67
2018-11-10T22:27:45.450Z,6.33
2018-11-10T22:30:15.396Z,3.00
2018-11-10T22:32:45.067Z,4.07
2018-11-10T22:35:13.689Z,3.50
2018-11-10T22:37:42.504Z,4.07
2018-11-10T22:40:13.046Z,2.40
2018-11-10T22:42:42.313Z,2.23
2018-11-10T22:45:12.694Z,5.70
2018-11-10T22:47:42.201Z,2.83
2018-11-10T22:50:13.598Z,1.63
2018-11-10T22:52:42.882Z,2.30
2018-11-10T22:55:11.740Z,3.83
2018-11-10T22:57:40.755Z,1.73
2018-11-10T23:00:21.192Z,2.27
2018-11-10T23:02:51.153Z,6.10
2018-11-10T23:05:20.489Z,1.77
2018-11-10T23:07:49.271Z,5.63
2018-11-10T23:10:18.506Z,2.20
2018-11-10T23:12:48.473Z,2.13
2018-11-10T23:15:17.116Z,2.00
2018-11-10T23:17:45.990Z,1.93
2018-11-10T23:20:16.023Z,3.00
2018-11-10T23:22:44.810Z,2.00
2018-11-10T23:25:14.789Z,1.83
2018-11-10T23:27:43.699Z,3.40
2018-11-10T23:30:15.646Z,2.60
2018-11-10T23:32:44.260Z,2.10
2018-11-10T23:35:13.227Z,3.80
2018-11-10T23:37:42.097Z,4.60
2018-11-10T23:40:12.651Z,2.40
2018-11-10T23:42:41.803Z,2.47
2018-11-10T23:45:11.153Z,2.10
2018-11-10T23:47:39.701Z,6.07
2018-11-10T23:50:10.527Z,4.20
2018-11-10T23:52:39.659Z,3.30
2018-11-10T23:55:09.454Z,2.90
2018-11-10T23:57:38.160Z,4.53
